createdAt,value
2023-04-14T00:02:00.839Z,98247.97
2023-04-14T00:04:27.766Z,98249.53
2023-04-14T00:06:57.124Z,98248.06
2023-04-14T00:09:23.940Z,98251.72
2023-04-14T00:11:51.020Z,98248.78
2023-04-14T00:14:17.744Z,98254.53
2023-04-14T00:16:46.394Z,98246.13
2023-04-14T00:19:13.180Z,98240.25
2023-04-14T00:21:39.964Z,98242.97
2023-04-14T00:24:06.664Z,98252.91
2023-04-14T00:26:33.284Z,98241.69
2023-04-14T00:29:00.239Z,98240.84
2023-04-14T00:31:27.095Z,98247.97
2023-04-14T00:33:53.730Z,98244.91
2023-04-14T00:36:20.338Z,98246.06
2023-04-14T00:38:46.974Z,98257.56
2023-04-14T00:41:13.674Z,98265.31
2023-04-14T00:43:40.344Z,98260.16
2023-04-14T00:46:07.203Z,98255.03
2023-04-14T00:48:34.357Z,98264.69
2023-04-14T00:51:02.146Z,98269.09
2023-04-14T00:53:28.925Z,98268.41
2023-04-14T00:55:55.767Z,98266.66
2023-04-14T00:58:22.372Z,98259.44
2023-04-14T01:00:53.961Z,98258.41
2023-04-14T01:03:21.152Z,98264.38
2023-04-14T01:05:48.006Z,98267.00
2023-04-14T01:08:14.781Z,98264.56
2023-04-14T01:10:49.869Z,98274.09
2023-04-14T01:13:27.450Z,98280.19
2023-04-14T01:15:59.626Z,98274.94
2023-04-14T01:18:35.372Z,98275.03
2023-04-14T01:21:13.409Z,98275.97
2023-04-14T01:23:48.229Z,98276.19
2023-04-14T01:26:29.610Z,98272.81
2023-04-14T01:29:17.736Z,98275.34
2023-04-14T01:31:50.627Z,98282.03
2023-04-14T01:34:29.061Z,98273.16
2023-04-14T01:37:02.374Z,98284.78
2023-04-14T01:39:35.725Z,98276.56
2023-04-14T01:42:06.683Z,98281.81
2023-04-14T01:44:34.890Z,98276.56
2023-04-14T01:47:05.907Z,98267.97
2023-04-14T01:49:35.634Z,98273.03
2023-04-14T01:52:06.710Z,98276.38
2023-04-14T01:54:34.736Z,98272.09
2023-04-14T01:57:03.988Z,98264.97
2023-04-14T01:59:32.481Z,98270.19
2023-04-14T02:02:01.766Z,98270.31
2023-04-14T02:04:30.837Z,98272.19
2023-04-14T02:07:00.406Z,98270.59
2023-04-14T02:09:29.362Z,98275.72
2023-04-14T02:11:58.261Z,98280.13
2023-04-14T02:14:25.001Z,98276.75
2023-04-14T02:16:53.696Z,98278.00
2023-04-14T02:19:21.784Z,98269.50
2023-04-14T02:21:50.894Z,98276.81
2023-04-14T02:24:18.024Z,98285.59
2023-04-14T02:26:53.953Z,98282.06
2023-04-14T02:29:22.473Z,98281.31
2023-04-14T02:32:04.731Z,98287.22
2023-04-14T02:34:38.456Z,98288.13
2023-04-14T02:37:20.751Z,98293.28
2023-04-14T02:39:53.668Z,98295.91
2023-04-14T02:42:25.983Z,98299.44
2023-04-14T02:45:05.434Z,98299.44
2023-04-14T02:47:34.377Z,98294.00
2023-04-14T02:50:03.259Z,98296.44
2023-04-14T02:52:32.955Z,98301.59
2023-04-14T02:55:01.587Z,98292.16
2023-04-14T02:57:30.039Z,98300.94
2023-04-14T02:59:58.837Z,98297.16
2023-04-14T03:02:26.497Z,98283.16
2023-04-14T03:04:53.546Z,98282.22
2023-04-14T03:07:21.821Z,98289.31
2023-04-14T03:09:51.953Z,98279.59
2023-04-14T03:12:20.317Z,98279.59
2023-04-14T03:14:48.482Z,98274.38
2023-04-14T03:17:17.586Z,98267.47
2023-04-14T03:19:48.609Z,98274.59
2023-04-14T03:22:20.652Z,98272.16
2023-04-14T03:24:47.803Z,98274.97
2023-04-14T03:27:25.945Z,98280.94
2023-04-14T03:29:55.790Z,98275.69
2023-04-14T03:32:28.137Z,98273.06
2023-04-14T03:34:58.046Z,98264.38
2023-04-14T03:37:26.346Z,98268.78
2023-04-14T03:39:53.991Z,98266.91
2023-04-14T03:42:22.395Z,98258.88
2023-04-14T03:44:53.289Z,98264.84
2023-04-14T03:47:23.611Z,98258.88
2023-04-14T03:49:56.983Z,98269.97
2023-04-14T03:52:24.977Z,98271.22
2023-04-14T03:54:54.619Z,98272.22
2023-04-14T03:57:23.365Z,98272.34
2023-04-14T03:59:52.351Z,98274.75
2023-04-14T04:02:20.984Z,98277.84
2023-04-14T04:04:49.109Z,98270.66
2023-04-14T04:07:17.583Z,98275.59
2023-04-14T04:09:47.383Z,98279.03
2023-04-14T04:12:18.464Z,98275.50
2023-04-14T04:14:45.287Z,98287.53
2023-04-14T04:17:14.820Z,98296.22
2023-04-14T04:19:43.598Z,98290.81
2023-04-14T04:22:11.893Z,98287.97
2023-04-14T04:24:40.769Z,98291.25
2023-04-14T04:27:20.421Z,98295.44
2023-04-14T04:29:54.017Z,98293.56
2023-04-14T04:32:21.218Z,98283.66
2023-04-14T04:34:52.674Z,98289.63
2023-04-14T04:37:20.000Z,98286.88
2023-04-14T04:39:48.591Z,98289.63
2023-04-14T04:42:15.313Z,98290.88
2023-04-14T04:44:42.045Z,98290.13
2023-04-14T04:47:09.544Z,98300.38
2023-04-14T04:49:36.312Z,98293.19
2023-04-14T04:52:02.959Z,98298.03
2023-04-14T04:54:29.661Z,98307.56
2023-04-14T04:56:57.711Z,98307.25
2023-04-14T04:59:25.011Z,98311.25
2023-04-14T05:01:52.210Z,98305.84
2023-04-14T05:04:19.170Z,98310.13
2023-04-14T05:06:45.873Z,98311.63
2023-04-14T05:09:12.552Z,98304.59
2023-04-14T05:11:39.220Z,98300.06
2023-04-14T05:14:06.474Z,98300.75
2023-04-14T05:16:33.588Z,98303.97
2023-04-14T05:19:00.449Z,98303.97
2023-04-14T05:21:27.352Z,98303.16
2023-04-14T05:23:54.004Z,98314.38
2023-04-14T05:26:44.501Z,98319.06
2023-04-14T05:29:08.947Z,98315.72
2023-04-14T05:31:35.644Z,98315.06
2023-04-14T05:34:02.737Z,98312.72
2023-04-14T05:36:29.527Z,98315.91
2023-04-14T05:38:56.350Z,98308.91
2023-04-14T05:41:23.635Z,98313.44
2023-04-14T05:43:50.835Z,98301.72
2023-04-14T05:46:17.744Z,98309.66
2023-04-14T05:48:44.506Z,98314.72
2023-04-14T05:51:11.403Z,98308.31
2023-04-14T05:53:38.126Z,98305.41
2023-04-14T05:56:05.274Z,98301.75
2023-04-14T05:58:31.916Z,98303.72
2023-04-14T06:00:58.577Z,98311.38
2023-04-14T06:03:25.542Z,98309.38
2023-04-14T06:05:53.144Z,98312.56
2023-04-14T06:08:20.695Z,98300.41
2023-04-14T06:10:47.421Z,98295.06
2023-04-14T06:13:15.201Z,98296.00
2023-04-14T06:15:41.816Z,98296.72
2023-04-14T06:18:08.489Z,98299.34
2023-04-14T06:20:35.608Z,98304.47
2023-04-14T06:23:02.254Z,98308.56
2023-04-14T06:25:28.918Z,98303.88
2023-04-14T06:27:55.691Z,98301.56
2023-04-14T06:30:22.634Z,98304.63
2023-04-14T06:32:54.236Z,98294.88
2023-04-14T06:35:32.376Z,98304.94
2023-04-14T06:37:59.930Z,98299.69
2023-04-14T06:40:26.578Z,98300.44
2023-04-14T06:42:53.179Z,98290.69
2023-04-14T06:45:19.876Z,98294.03
2023-04-14T06:47:46.546Z,98289.63
2023-04-14T06:50:13.343Z,98298.44
2023-04-14T06:52:40.071Z,98304.00
2023-04-14T06:55:07.151Z,98302.84
2023-04-14T06:57:33.718Z,98298.03
2023-04-14T07:00:00.397Z,98304.13
2023-04-14T07:02:28.858Z,98295.72
2023-04-14T07:04:56.041Z,98295.72
2023-04-14T07:07:24.378Z,98289.63
2023-04-14T07:09:51.617Z,98293.09
2023-04-14T07:12:18.475Z,98292.16
2023-04-14T07:14:51.953Z,98294.44
2023-04-14T07:17:19.493Z,98293.09
2023-04-14T07:19:46.505Z,98288.78
2023-04-14T07:22:13.210Z,98283.09
2023-04-14T07:24:40.084Z,98287.91
2023-04-14T07:27:15.133Z,98280.97
2023-04-14T07:29:42.604Z,98280.34
2023-04-14T07:32:09.242Z,98281.63
2023-04-14T07:34:35.965Z,98278.44
2023-04-14T07:37:02.687Z,98280.75
2023-04-14T07:39:29.511Z,98283.88
2023-04-14T07:41:58.759Z,98278.78
2023-04-14T07:44:25.831Z,98285.28
2023-04-14T07:46:52.462Z,98275.19
2023-04-14T07:49:19.153Z,98283.25
2023-04-14T07:51:45.739Z,98287.53
2023-04-14T07:54:12.432Z,98288.78
2023-04-14T07:56:39.059Z,98287.16
2023-04-14T07:59:05.884Z,98283.16
2023-04-14T08:01:32.498Z,98287.22
2023-04-14T08:03:59.294Z,98283.41
2023-04-14T08:06:28.163Z,98284.63
2023-04-14T08:08:54.825Z,98286.06
2023-04-14T08:11:21.551Z,98297.09
2023-04-14T08:13:49.942Z,98299.03
2023-04-14T08:16:17.104Z,98299.19
2023-04-14T08:18:44.006Z,98301.97
2023-04-14T08:21:10.857Z,98290.88
2023-04-14T08:23:37.726Z,98288.50
2023-04-14T08:26:05.150Z,98295.56
2023-04-14T08:28:31.835Z,98288.41
2023-04-14T08:30:58.592Z,98287.47
2023-04-14T08:33:25.500Z,98289.38
2023-04-14T08:35:59.434Z,98283.75
2023-04-14T08:38:27.884Z,98284.25
2023-04-14T08:40:56.503Z,98278.59
2023-04-14T08:43:23.499Z,98274.91
2023-04-14T08:45:53.951Z,98272.25
2023-04-14T08:48:21.598Z,98272.22
2023-04-14T08:51:10.283Z,98276.69
2023-04-14T08:53:45.759Z,98271.38
2023-04-14T08:56:16.349Z,98274.66
2023-04-14T08:58:43.716Z,98276.50
2023-04-14T09:01:11.407Z,98268.47
2023-04-14T09:03:38.542Z,98272.88
2023-04-14T09:06:06.594Z,98279.75
2023-04-14T09:08:34.616Z,98267.75
2023-04-14T09:11:02.564Z,98270.91
2023-04-14T09:13:30.100Z,98268.06
2023-04-14T09:15:57.457Z,98266.31
2023-04-14T09:18:28.862Z,98269.28
2023-04-14T09:21:37.173Z,98261.41
2023-04-14T09:23:46.293Z,98247.69
2023-04-14T09:26:13.609Z,98254.13
2023-04-14T09:28:41.354Z,98253.59
2023-04-14T09:31:08.711Z,98248.91
2023-04-14T09:36:06.462Z,98262.84
2023-04-14T09:38:36.521Z,98260.78
2023-04-14T09:41:06.164Z,98266.78
2023-04-14T09:43:33.068Z,98251.06
2023-04-14T09:46:08.597Z,98247.22
2023-04-14T09:48:37.592Z,98236.94
2023-04-14T09:51:10.016Z,98236.97
2023-04-14T09:53:38.566Z,98246.97
2023-04-14T09:56:07.471Z,98243.78
2023-04-14T09:58:42.167Z,98246.16
2023-04-14T10:01:13.119Z,98249.06
2023-04-14T10:03:41.961Z,98243.09
2023-04-14T10:06:10.795Z,98248.25
2023-04-14T10:08:39.099Z,98244.34
2023-04-14T10:11:19.154Z,98241.84
2023-04-14T10:13:51.546Z,98244.59
2023-04-14T10:16:18.430Z,98229.81
2023-04-14T10:18:45.800Z,98218.78
2023-04-14T10:21:14.157Z,98221.38
2023-04-14T10:23:41.524Z,98223.38
2023-04-14T10:26:13.197Z,98227.41
2023-04-14T10:28:43.304Z,98224.63
2023-04-14T10:31:20.339Z,98227.56
2023-04-14T10:33:47.326Z,98218.66
2023-04-14T10:36:24.588Z,98224.28
2023-04-14T10:39:02.718Z,98220.56
2023-04-14T10:41:48.912Z,98225.66
2023-04-14T10:44:32.846Z,98216.00
2023-04-14T10:47:05.209Z,98215.09
2023-04-14T10:49:34.930Z,98213.72
2023-04-14T10:52:05.489Z,98214.25
2023-04-14T10:55:02.874Z,98203.78
2023-04-14T10:57:30.325Z,98203.97
2023-04-14T11:00:00.693Z,98189.09
2023-04-14T11:02:32.323Z,98204.28
2023-04-14T11:05:11.553Z,98209.34
2023-04-14T11:07:44.820Z,98193.31
2023-04-14T11:10:32.144Z,98193.56
2023-04-14T11:13:08.426Z,98197.25
2023-04-14T11:15:49.134Z,98201.75
2023-04-14T11:18:33.244Z,98194.53
2023-04-14T11:21:13.037Z,98188.59
2023-04-14T11:23:40.937Z,98194.84
2023-04-14T11:26:09.929Z,98184.94
2023-04-14T11:28:38.568Z,98185.69
2023-04-14T11:31:08.481Z,98180.41
2023-04-14T11:33:37.523Z,98169.09
2023-04-14T11:36:09.484Z,98159.44
2023-04-14T11:38:43.039Z,98157.47
2023-04-14T11:41:10.027Z,98154.84
2023-04-14T11:43:46.321Z,98150.66
2023-04-14T11:46:13.219Z,98145.41
2023-04-14T11:48:39.889Z,98144.06
2023-04-14T11:51:06.737Z,98139.91
2023-04-14T11:53:34.639Z,98138.25
2023-04-14T11:56:01.451Z,98129.09
2023-04-14T11:58:28.970Z,98113.81
2023-04-14T12:00:57.765Z,98103.16
2023-04-14T12:03:29.651Z,98109.66
2023-04-14T12:06:00.672Z,98116.28
2023-04-14T12:08:30.270Z,98106.72
2023-04-14T12:10:57.838Z,98105.59
2023-04-14T12:13:25.113Z,98105.88
2023-04-14T12:15:52.935Z,98109.97
2023-04-14T12:20:56.478Z,98110.34
2023-04-14T12:23:23.766Z,98096.84
2023-04-14T12:25:50.796Z,98096.94
2023-04-14T12:28:28.289Z,98097.00
2023-04-14T12:31:01.524Z,98099.50
2023-04-14T12:33:29.699Z,98101.00
2023-04-14T12:36:06.780Z,98102.81
2023-04-14T12:38:34.315Z,98099.78
2023-04-14T12:41:01.476Z,98095.19
2023-04-14T12:43:40.614Z,98096.59
2023-04-14T12:46:08.091Z,98089.16
2023-04-14T12:48:48.569Z,98076.75
2023-04-14T12:51:17.557Z,98081.75
2023-04-14T12:53:46.520Z,98085.59
2023-04-14T12:56:15.994Z,98083.97
2023-04-14T12:58:46.631Z,98095.66
2023-04-14T13:01:14.746Z,98095.34
2023-04-14T13:03:46.120Z,98098.31
2023-04-14T13:06:18.133Z,98098.00
2023-04-14T13:08:47.260Z,98105.75
2023-04-14T13:11:14.778Z,98097.28
2023-04-14T13:13:41.749Z,98092.06
2023-04-14T13:16:15.305Z,98086.00
2023-04-14T13:18:43.914Z,98082.97
2023-04-14T13:21:10.719Z,98084.09
2023-04-14T13:23:37.309Z,98075.66
2023-04-14T13:26:04.342Z,98077.81
2023-04-14T13:28:31.584Z,98068.38
2023-04-14T13:30:58.609Z,98057.75
2023-04-14T13:33:26.610Z,98061.88
2023-04-14T13:35:55.641Z,98066.38
2023-04-14T13:38:22.606Z,98054.06
2023-04-14T13:40:49.340Z,98055.06
2023-04-14T13:43:17.900Z,98045.78
2023-04-14T13:45:44.926Z,98047.44
2023-04-14T13:48:11.622Z,98043.44
2023-04-14T13:50:38.293Z,98051.91
2023-04-14T13:53:05.622Z,98053.25
2023-04-14T13:55:32.573Z,98045.78
2023-04-14T13:57:59.160Z,98038.09
2023-04-14T14:00:26.388Z,98046.94
2023-04-14T14:02:53.135Z,98052.78
2023-04-14T14:05:19.925Z,98050.75
2023-04-14T14:07:46.774Z,98049.09
2023-04-14T14:10:13.413Z,98050.41
2023-04-14T14:12:40.066Z,98052.38
2023-04-14T14:15:07.344Z,98058.34
2023-04-14T14:17:34.016Z,98055.34
2023-04-14T14:20:00.874Z,98055.19
2023-04-14T14:22:27.563Z,98058.63
2023-04-14T14:24:58.637Z,98063.59
2023-04-14T14:27:31.793Z,98073.31
2023-04-14T14:29:58.457Z,98073.31
2023-04-14T14:32:25.180Z,98087.19
2023-04-14T14:34:51.858Z,98081.97
2023-04-14T14:37:19.592Z,98069.00
2023-04-14T14:39:46.287Z,98070.19
2023-04-14T14:42:12.893Z,98066.19
2023-04-14T14:44:39.554Z,98062.63
2023-04-14T14:47:06.598Z,98064.13
2023-04-14T14:49:33.416Z,98057.00
2023-04-14T14:52:02.565Z,98049.00
2023-04-14T14:54:29.112Z,98049.88
2023-04-14T14:56:56.557Z,98054.56
2023-04-14T14:59:23.176Z,98057.91
2023-04-14T15:01:50.006Z,98051.16
2023-04-14T15:04:17.231Z,98050.03
2023-04-14T15:06:44.031Z,98052.69
2023-04-14T15:09:11.360Z,98051.75
2023-04-14T15:11:37.971Z,98049.31
2023-04-14T15:14:04.672Z,98044.91
2023-04-14T15:16:31.457Z,98043.28
2023-04-14T15:18:58.113Z,98039.84
2023-04-14T15:21:24.836Z,98038.53
2023-04-14T15:23:51.543Z,98038.63
2023-04-14T15:26:18.579Z,98047.06
2023-04-14T15:28:45.739Z,98043.00
2023-04-14T15:31:12.400Z,98038.09
2023-04-14T15:33:39.079Z,98043.22
2023-04-14T15:36:06.090Z,98044.63
2023-04-14T15:38:32.737Z,98047.22
2023-04-14T15:40:59.806Z,98049.50
2023-04-14T15:43:27.851Z,98044.84
2023-04-14T15:45:54.663Z,98048.78
2023-04-14T15:48:21.457Z,98053.47
2023-04-14T15:50:48.080Z,98058.03
2023-04-14T15:53:14.750Z,98055.00
2023-04-14T15:55:41.415Z,98057.44
2023-04-14T15:58:08.293Z,98067.19
2023-04-14T16:00:34.945Z,98064.75
2023-04-14T16:03:02.798Z,98054.97
2023-04-14T16:05:29.682Z,98055.34
2023-04-14T16:07:56.368Z,98053.41
2023-04-14T16:10:23.361Z,98056.28
2023-04-14T16:12:50.556Z,98061.22
2023-04-14T16:15:17.480Z,98058.94
2023-04-14T16:17:44.699Z,98061.88
2023-04-14T16:20:12.680Z,98065.72
2023-04-14T16:22:39.625Z,98072.47
2023-04-14T16:25:07.424Z,98068.16
2023-04-14T16:27:34.724Z,98060.53
2023-04-14T16:30:02.516Z,98063.09
2023-04-14T16:32:30.662Z,98064.06
2023-04-14T16:34:57.306Z,98061.34
2023-04-14T16:37:26.030Z,98060.75
2023-04-14T16:39:56.250Z,98065.13
2023-04-14T16:42:24.616Z,98057.78
2023-04-14T16:44:54.867Z,98064.91
2023-04-14T16:47:22.602Z,98065.22
2023-04-14T16:49:53.079Z,98062.72
2023-04-14T16:52:20.204Z,98067.72
2023-04-14T16:54:46.756Z,98065.22
2023-04-14T16:57:13.772Z,98066.56
2023-04-14T16:59:40.628Z,98065.22
2023-04-14T17:02:08.244Z,98070.06
2023-04-14T17:04:35.292Z,98057.25
2023-04-14T17:07:02.179Z,98073.53
2023-04-14T17:09:29.106Z,98067.13
2023-04-14T17:11:57.038Z,98066.06
2023-04-14T17:14:23.701Z,98067.41
2023-04-14T17:16:50.344Z,98070.38
2023-04-14T17:19:17.136Z,98069.22
2023-04-14T17:21:47.010Z,98073.94
2023-04-14T17:24:14.656Z,98077.75
2023-04-14T17:26:41.324Z,98075.31
2023-04-14T17:29:07.905Z,98087.91
2023-04-14T17:31:34.799Z,98081.25
2023-04-14T17:34:02.066Z,98088.81
2023-04-14T17:36:28.888Z,98085.75
2023-04-14T17:38:56.138Z,98084.63
2023-04-14T17:41:22.715Z,98083.53
2023-04-14T17:43:49.418Z,98090.19
2023-04-14T17:46:17.609Z,98095.28
2023-04-14T17:48:44.978Z,98100.00
2023-04-14T17:51:11.626Z,98096.97
2023-04-14T17:53:38.915Z,98099.75
2023-04-14T17:56:07.487Z,98095.88
2023-04-14T17:58:34.234Z,98098.94
2023-04-14T18:01:01.078Z,98103.16
2023-04-14T18:03:28.542Z,98100.09
2023-04-14T18:05:55.488Z,98104.28
2023-04-14T18:08:22.182Z,98095.13
2023-04-14T18:10:48.775Z,98104.84
2023-04-14T18:13:15.601Z,98108.47
2023-04-14T18:15:42.338Z,98117.66
2023-04-14T18:18:09.206Z,98112.69
2023-04-14T18:20:36.408Z,98111.69
2023-04-14T18:23:03.206Z,98116.56
2023-04-14T18:28:03.179Z,98115.75
2023-04-14T18:30:30.373Z,98121.44
2023-04-14T18:32:57.131Z,98120.75
2023-04-14T18:35:25.113Z,98127.41
2023-04-14T18:37:51.825Z,98132.41
2023-04-14T18:40:18.611Z,98133.41
2023-04-14T18:42:45.229Z,98129.91
2023-04-14T18:45:12.438Z,98130.19
2023-04-14T18:47:39.152Z,98130.72
2023-04-14T18:50:06.440Z,98131.78
2023-04-14T18:52:33.100Z,98133.19
2023-04-14T18:54:59.744Z,98140.69
2023-04-14T18:57:26.846Z,98139.28
2023-04-14T18:59:53.541Z,98132.47
2023-04-14T19:02:20.820Z,98131.19
2023-04-14T19:04:47.512Z,98138.69
2023-04-14T19:07:14.172Z,98133.41
2023-04-14T19:09:40.796Z,98135.63
2023-04-14T19:12:15.581Z,98134.63
2023-04-14T19:14:51.957Z,98135.28
2023-04-14T19:17:18.603Z,98132.34
2023-04-14T19:19:45.223Z,98139.97
2023-04-14T19:22:11.863Z,98136.88
2023-04-14T19:24:39.053Z,98139.78
2023-04-14T19:27:08.631Z,98139.34
2023-04-14T19:29:35.902Z,98143.22
2023-04-14T19:32:04.104Z,98140.84
2023-04-14T19:34:30.891Z,98140.84
2023-04-14T19:36:57.644Z,98128.72
2023-04-14T19:39:24.280Z,98132.81
2023-04-14T19:41:51.295Z,98130.31
2023-04-14T19:44:17.921Z,98135.88
2023-04-14T19:46:46.360Z,98132.75
2023-04-14T19:49:13.512Z,98147.44
2023-04-14T19:51:40.361Z,98148.78
2023-04-14T19:54:07.430Z,98142.38
2023-04-14T19:56:34.920Z,98141.44
2023-04-14T19:59:01.905Z,98141.72
2023-04-14T20:01:28.813Z,98143.63
2023-04-14T20:04:05.578Z,98145.81
2023-04-14T20:06:39.486Z,98145.59
2023-04-14T20:09:06.552Z,98143.25
2023-04-14T20:11:33.189Z,98135.69
2023-04-14T20:13:59.825Z,98136.13
2023-04-14T20:16:26.709Z,98136.34
2023-04-14T20:18:53.439Z,98135.50
2023-04-14T20:21:20.252Z,98123.22
2023-04-14T20:23:47.057Z,98123.50
2023-04-14T20:26:15.342Z,98126.97
2023-04-14T20:28:42.896Z,98126.63
2023-04-14T20:31:10.354Z,98128.06
2023-04-14T20:33:37.064Z,98125.94
2023-04-14T20:36:03.858Z,98131.69
2023-04-14T20:38:30.595Z,98136.47
2023-04-14T20:40:57.269Z,98133.38
2023-04-14T20:43:31.587Z,98141.25
2023-04-14T20:45:58.263Z,98146.06
2023-04-14T20:48:25.498Z,98140.31
2023-04-14T20:50:52.079Z,98143.03
2023-04-14T20:53:21.150Z,98134.09
2023-04-14T20:55:47.935Z,98132.88
2023-04-14T20:58:14.981Z,98133.97
2023-04-14T21:00:41.574Z,98136.84
2023-04-14T21:03:09.849Z,98141.03
2023-04-14T21:05:36.697Z,98130.41
2023-04-14T21:08:03.934Z,98140.31
2023-04-14T21:10:30.557Z,98134.34
2023-04-14T21:15:03.853Z,98135.78
2023-04-14T21:15:55.390Z,98131.09
2023-04-14T21:18:23.081Z,98137.41
2023-04-14T21:20:49.778Z,98140.50
2023-04-14T21:23:16.820Z,98140.88
2023-04-14T21:25:43.522Z,98140.50
2023-04-14T21:28:10.496Z,98140.63
2023-04-14T21:30:37.755Z,98133.56
2023-04-14T21:33:07.379Z,98134.50
2023-04-14T21:35:35.044Z,98139.75
2023-04-14T21:38:02.592Z,98146.22
2023-04-14T21:40:29.666Z,98134.69
2023-04-14T21:42:56.650Z,98138.75
2023-04-14T21:45:23.471Z,98148.06
2023-04-14T21:47:50.204Z,98138.69
2023-04-14T21:50:17.389Z,98142.41
2023-04-14T21:52:43.989Z,98140.84
2023-04-14T21:55:10.723Z,98131.53
2023-04-14T21:57:45.765Z,98135.31
2023-04-14T22:00:17.759Z,98134.72
2023-04-14T22:02:45.337Z,98136.22
2023-04-14T22:05:12.624Z,98135.97
2023-04-14T22:07:39.872Z,98135.00
2023-04-14T22:10:07.109Z,98132.00
2023-04-14T22:12:37.780Z,98132.94
2023-04-14T22:15:04.889Z,98134.00
2023-04-14T22:17:32.772Z,98134.44
2023-04-14T22:19:59.414Z,98139.09
2023-04-14T22:22:26.198Z,98134.97
2023-04-14T22:24:54.845Z,98132.69
2023-04-14T22:27:21.568Z,98125.06
2023-04-14T22:29:48.185Z,98129.56
2023-04-14T22:32:16.256Z,98135.88
2023-04-14T22:34:42.949Z,98131.91
2023-04-14T22:37:09.645Z,98137.25
2023-04-14T22:39:36.420Z,98140.00
2023-04-14T22:42:03.042Z,98134.97
2023-04-14T22:44:29.701Z,98134.22
2023-04-14T22:46:56.665Z,98137.09
2023-04-14T22:49:23.353Z,98136.03
2023-04-14T22:51:49.920Z,98137.69
2023-04-14T22:54:16.623Z,98144.22
2023-04-14T22:56:43.442Z,98142.75
2023-04-14T22:59:10.091Z,98142.97
2023-04-14T23:01:36.967Z,98127.66
2023-04-14T23:04:03.664Z,98128.84
2023-04-14T23:06:30.332Z,98129.06
2023-04-14T23:08:57.174Z,98133.56
2023-04-14T23:11:23.791Z,98132.63
2023-04-14T23:13:50.969Z,98136.09
2023-04-14T23:16:20.046Z,98135.25
2023-04-14T23:18:52.049Z,98125.81
2023-04-14T23:21:22.194Z,98125.81
2023-04-14T23:23:49.850Z,98127.59
2023-04-14T23:26:17.400Z,98122.44
2023-04-14T23:28:44.049Z,98117.94
2023-04-14T23:31:10.991Z,98121.41
2023-04-14T23:33:37.748Z,98117.94
2023-04-14T23:36:04.584Z,98122.84
2023-04-14T23:38:31.566Z,98121.19
2023-04-14T23:40:59.160Z,98119.53
2023-04-14T23:43:29.017Z,98112.59
2023-04-14T23:45:56.050Z,98110.72
2023-04-14T23:48:22.811Z,98109.75
2023-04-14T23:51:00.640Z,98107.13
2023-04-14T23:53:36.197Z,98106.19
2023-04-14T23:56:04.183Z,98106.91
2023-04-14T23:58:31.520Z,98097.38
